sensor_id;sensor_type;location;lat;lon;timestamp;P1;durP1;ratioP1;P2;durP2;ratioP2
40573;SDS011;26283;49.020;8.644;2022-08-16T00:00:30;3.20;;;3.00;;
40573;SDS011;26283;49.020;8.644;2022-08-16T00:03:00;2.90;;;2.70;;
40573;SDS011;26283;49.020;8.644;2022-08-16T00:05:26;2.97;;;2.77;;
40573;SDS011;26283;49.020;8.644;2022-08-16T00:07:52;3.53;;;3.00;;
40573;SDS011;26283;49.020;8.644;2022-08-16T00:10:19;3.40;;;3.10;;
40573;SDS011;26283;49.020;8.644;2022-08-16T00:12:47;3.50;;;3.17;;
40573;SDS011;26283;49.020;8.644;2022-08-16T00:15:23;3.33;;;3.03;;
40573;SDS011;26283;49.020;8.644;2022-08-16T00:17:51;3.63;;;3.33;;
40573;SDS011;26283;49.020;8.644;2022-08-16T00:20:17;3.00;;;2.80;;
40573;SDS011;26283;49.020;8.644;2022-08-16T00:22:43;3.30;;;3.07;;
40573;SDS011;26283;49.020;8.644;2022-08-16T00:25:10;3.27;;;3.00;;
40573;SDS011;26283;49.020;8.644;2022-08-16T00:27:39;3.10;;;2.90;;
40573;SDS011;26283;49.020;8.644;2022-08-16T00:30:05;3.27;;;3.07;;
40573;SDS011;26283;49.020;8.644;2022-08-16T00:32:33;3.30;;;3.10;;
40573;SDS011;26283;49.020;8.644;2022-08-16T00:34:59;3.40;;;3.20;;
40573;SDS011;26283;49.020;8.644;2022-08-16T00:37:25;2.83;;;2.63;;
40573;SDS011;26283;49.020;8.644;2022-08-16T00:39:51;3.30;;;3.00;;
40573;SDS011;26283;49.020;8.644;2022-08-16T00:42:18;3.80;;;3.00;;
40573;SDS011;26283;49.020;8.644;2022-08-16T00:44:45;3.20;;;3.03;;
40573;SDS011;26283;49.020;8.644;2022-08-16T00:47:18;3.50;;;3.30;;
40573;SDS011;26283;49.020;8.644;2022-08-16T00:49:46;3.27;;;3.07;;
40573;SDS011;26283;49.020;8.644;2022-08-16T00:52:11;3.20;;;3.00;;
40573;SDS011;26283;49.020;8.644;2022-08-16T00:54:36;3.40;;;3.20;;
40573;SDS011;26283;49.020;8.644;2022-08-16T00:57:02;3.20;;;3.00;;
40573;SDS011;26283;49.020;8.644;2022-08-16T00:59:29;3.23;;;3.03;;
40573;SDS011;26283;49.020;8.644;2022-08-16T01:01:58;3.13;;;2.93;;
40573;SDS011;26283;49.020;8.644;2022-08-16T01:04:25;3.47;;;3.00;;
40573;SDS011;26283;49.020;8.644;2022-08-16T01:06:52;3.47;;;3.27;;
40573;SDS011;26283;49.020;8.644;2022-08-16T01:09:18;3.20;;;3.00;;
40573;SDS011;26283;49.020;8.644;2022-08-16T01:11:44;3.37;;;3.17;;
40573;SDS011;26283;49.020;8.644;2022-08-16T01:14:15;3.73;;;3.53;;
40573;SDS011;26283;49.020;8.644;2022-08-16T01:16:44;3.50;;;3.30;;
40573;SDS011;26283;49.020;8.644;2022-08-16T01:21:58;3.20;;;2.93;;
40573;SDS011;26283;49.020;8.644;2022-08-16T01:26:59;3.23;;;3.03;;
40573;SDS011;26283;49.020;8.644;2022-08-16T01:29:37;3.40;;;3.20;;
40573;SDS011;26283;49.020;8.644;2022-08-16T01:32:07;3.47;;;3.20;;
40573;SDS011;26283;49.020;8.644;2022-08-16T01:34:33;3.60;;;3.40;;
40573;SDS011;26283;49.020;8.644;2022-08-16T01:37:08;4.27;;;3.90;;
40573;SDS011;26283;49.020;8.644;2022-08-16T01:39:36;3.40;;;3.10;;
40573;SDS011;26283;49.020;8.644;2022-08-16T01:42:02;3.50;;;3.30;;
40573;SDS011;26283;49.020;8.644;2022-08-16T01:44:31;3.43;;;3.30;;
40573;SDS011;26283;49.020;8.644;2022-08-16T01:46:57;3.67;;;3.37;;
40573;SDS011;26283;49.020;8.644;2022-08-16T01:49:27;3.60;;;3.40;;
40573;SDS011;26283;49.020;8.644;2022-08-16T01:52:18;3.40;;;3.20;;
40573;SDS011;26283;49.020;8.644;2022-08-16T01:54:43;3.50;;;3.30;;
40573;SDS011;26283;49.020;8.644;2022-08-16T01:57:09;3.50;;;3.40;;
40573;SDS011;26283;49.020;8.644;2022-08-16T01:59:35;4.10;;;3.50;;
40573;SDS011;26283;49.020;8.644;2022-08-16T02:02:02;3.67;;;3.40;;
40573;SDS011;26283;49.020;8.644;2022-08-16T02:04:29;3.53;;;3.33;;
40573;SDS011;26283;49.020;8.644;2022-08-16T02:06:56;3.57;;;3.30;;
40573;SDS011;26283;49.020;8.644;2022-08-16T02:09:23;3.90;;;3.60;;
40573;SDS011;26283;49.020;8.644;2022-08-16T02:11:54;3.50;;;3.30;;
40573;SDS011;26283;49.020;8.644;2022-08-16T02:14:22;3.67;;;3.37;;
40573;SDS011;26283;49.020;8.644;2022-08-16T02:16:50;3.57;;;3.37;;
40573;SDS011;26283;49.020;8.644;2022-08-16T02:19:15;3.53;;;3.33;;
40573;SDS011;26283;49.020;8.644;2022-08-16T02:21:43;3.87;;;3.67;;
40573;SDS011;26283;49.020;8.644;2022-08-16T02:24:12;3.63;;;3.40;;
40573;SDS011;26283;49.020;8.644;2022-08-16T02:26:38;3.80;;;3.43;;
40573;SDS011;26283;49.020;8.644;2022-08-16T02:29:03;3.80;;;3.60;;
40573;SDS011;26283;49.020;8.644;2022-08-16T02:31:28;3.37;;;3.07;;
40573;SDS011;26283;49.020;8.644;2022-08-16T02:33:54;3.63;;;3.40;;
40573;SDS011;26283;49.020;8.644;2022-08-16T02:36:19;3.90;;;3.50;;
40573;SDS011;26283;49.020;8.644;2022-08-16T02:38:45;3.67;;;3.40;;
40573;SDS011;26283;49.020;8.644;2022-08-16T02:41:10;3.50;;;3.30;;
40573;SDS011;26283;49.020;8.644;2022-08-16T02:43:36;3.80;;;3.50;;
40573;SDS011;26283;49.020;8.644;2022-08-16T02:46:04;3.97;;;3.77;;
40573;SDS011;26283;49.020;8.644;2022-08-16T02:48:31;3.90;;;3.70;;
40573;SDS011;26283;49.020;8.644;2022-08-16T02:50:57;3.50;;;3.30;;
40573;SDS011;26283;49.020;8.644;2022-08-16T02:53:23;3.70;;;3.40;;
40573;SDS011;26283;49.020;8.644;2022-08-16T02:55:50;3.90;;;3.70;;
40573;SDS011;26283;49.020;8.644;2022-08-16T02:58:16;3.80;;;3.60;;
40573;SDS011;26283;49.020;8.644;2022-08-16T03:00:43;3.70;;;3.50;;
40573;SDS011;26283;49.020;8.644;2022-08-16T03:03:08;3.47;;;3.27;;
40573;SDS011;26283;49.020;8.644;2022-08-16T03:05:33;3.97;;;3.53;;
40573;SDS011;26283;49.020;8.644;2022-08-16T03:07:59;4.03;;;3.60;;
40573;SDS011;26283;49.020;8.644;2022-08-16T03:10:24;3.53;;;3.33;;
40573;SDS011;26283;49.020;8.644;2022-08-16T03:12:50;3.70;;;3.40;;
40573;SDS011;26283;49.020;8.644;2022-08-16T03:15:15;3.53;;;3.33;;
40573;SDS011;26283;49.020;8.644;2022-08-16T03:17:42;3.90;;;3.70;;
40573;SDS011;26283;49.020;8.644;2022-08-16T03:20:09;4.03;;;3.83;;
40573;SDS011;26283;49.020;8.644;2022-08-16T03:22:36;4.10;;;3.80;;
40573;SDS011;26283;49.020;8.644;2022-08-16T03:25:04;4.20;;;3.80;;
40573;SDS011;26283;49.020;8.644;2022-08-16T03:27:31;4.03;;;3.73;;
40573;SDS011;26283;49.020;8.644;2022-08-16T03:30:02;4.00;;;3.80;;
40573;SDS011;26283;49.020;8.644;2022-08-16T03:32:34;4.47;;;4.00;;
40573;SDS011;26283;49.020;8.644;2022-08-16T03:34:59;3.80;;;3.60;;
40573;SDS011;26283;49.020;8.644;2022-08-16T03:37:25;4.07;;;3.77;;
40573;SDS011;26283;49.020;8.644;2022-08-16T03:39:50;3.80;;;3.60;;
40573;SDS011;26283;49.020;8.644;2022-08-16T03:42:16;4.33;;;4.03;;
40573;SDS011;26283;49.020;8.644;2022-08-16T03:44:41;3.97;;;3.77;;
40573;SDS011;26283;49.020;8.644;2022-08-16T03:47:07;4.30;;;4.00;;
40573;SDS011;26283;49.020;8.644;2022-08-16T03:49:33;4.00;;;3.73;;
40573;SDS011;26283;49.020;8.644;2022-08-16T03:52:00;4.37;;;3.93;;
40573;SDS011;26283;49.020;8.644;2022-08-16T03:54:25;4.07;;;3.77;;
40573;SDS011;26283;49.020;8.644;2022-08-16T03:56:51;3.90;;;3.70;;
40573;SDS011;26283;49.020;8.644;2022-08-16T03:59:17;4.30;;;4.00;;
40573;SDS011;26283;49.020;8.644;2022-08-16T04:01:42;3.63;;;3.43;;
40573;SDS011;26283;49.020;8.644;2022-08-16T04:04:07;4.13;;;3.93;;
40573;SDS011;26283;49.020;8.644;2022-08-16T04:06:33;4.00;;;3.70;;
40573;SDS011;26283;49.020;8.644;2022-08-16T04:08:58;3.50;;;3.30;;
40573;SDS011;26283;49.020;8.644;2022-08-16T04:11:23;4.17;;;3.87;;
40573;SDS011;26283;49.020;8.644;2022-08-16T04:13:49;3.90;;;3.60;;
40573;SDS011;26283;49.020;8.644;2022-08-16T04:16:14;4.27;;;3.97;;
40573;SDS011;26283;49.020;8.644;2022-08-16T04:18:41;4.70;;;4.23;;
40573;SDS011;26283;49.020;8.644;2022-08-16T04:21:07;3.97;;;3.67;;
40573;SDS011;26283;49.020;8.644;2022-08-16T04:23:33;3.93;;;3.63;;
40573;SDS011;26283;49.020;8.644;2022-08-16T04:25:58;4.50;;;4.20;;
40573;SDS011;26283;49.020;8.644;2022-08-16T04:28:24;4.80;;;4.00;;
40573;SDS011;26283;49.020;8.644;2022-08-16T04:30:50;4.57;;;4.20;;
40573;SDS011;26283;49.020;8.644;2022-08-16T04:33:16;4.33;;;3.90;;
40573;SDS011;26283;49.020;8.644;2022-08-16T04:35:42;4.90;;;3.90;;
40573;SDS011;26283;49.020;8.644;2022-08-16T04:38:07;4.13;;;3.93;;
40573;SDS011;26283;49.020;8.644;2022-08-16T04:40:33;6.57;;;4.23;;
40573;SDS011;26283;49.020;8.644;2022-08-16T04:42:58;4.30;;;4.00;;
40573;SDS011;26283;49.020;8.644;2022-08-16T04:45:25;4.17;;;3.87;;
40573;SDS011;26283;49.020;8.644;2022-08-16T04:47:51;4.43;;;4.03;;
40573;SDS011;26283;49.020;8.644;2022-08-16T04:50:19;4.27;;;4.07;;
40573;SDS011;26283;49.020;8.644;2022-08-16T04:52:49;4.63;;;4.33;;
40573;SDS011;26283;49.020;8.644;2022-08-16T04:55:20;4.93;;;4.63;;
40573;SDS011;26283;49.020;8.644;2022-08-16T04:57:48;5.07;;;4.77;;
40573;SDS011;26283;49.020;8.644;2022-08-16T05:00:17;4.27;;;4.07;;
40573;SDS011;26283;49.020;8.644;2022-08-16T05:02:44;5.23;;;4.80;;
40573;SDS011;26283;49.020;8.644;2022-08-16T05:05:12;4.60;;;4.30;;
40573;SDS011;26283;49.020;8.644;2022-08-16T05:07:38;4.83;;;4.47;;
40573;SDS011;26283;49.020;8.644;2022-08-16T05:10:06;4.57;;;4.20;;
40573;SDS011;26283;49.020;8.644;2022-08-16T05:12:32;4.60;;;4.30;;
40573;SDS011;26283;49.020;8.644;2022-08-16T05:14:58;4.27;;;4.07;;
40573;SDS011;26283;49.020;8.644;2022-08-16T05:17:24;5.23;;;4.90;;
40573;SDS011;26283;49.020;8.644;2022-08-16T05:19:50;5.33;;;4.73;;
40573;SDS011;26283;49.020;8.644;2022-08-16T05:22:15;4.87;;;4.60;;
40573;SDS011;26283;49.020;8.644;2022-08-16T05:24:41;5.30;;;5.00;;
40573;SDS011;26283;49.020;8.644;2022-08-16T05:27:07;4.80;;;4.50;;
40573;SDS011;26283;49.020;8.644;2022-08-16T05:29:33;5.27;;;4.67;;
40573;SDS011;26283;49.020;8.644;2022-08-16T05:31:58;4.67;;;4.37;;
40573;SDS011;26283;49.020;8.644;2022-08-16T05:34:25;4.80;;;4.50;;
40573;SDS011;26283;49.020;8.644;2022-08-16T05:36:51;4.93;;;4.60;;
40573;SDS011;26283;49.020;8.644;2022-08-16T05:39:21;4.90;;;4.47;;
40573;SDS011;26283;49.020;8.644;2022-08-16T05:41:47;4.40;;;4.20;;
40573;SDS011;26283;49.020;8.644;2022-08-16T05:44:13;4.40;;;4.20;;
40573;SDS011;26283;49.020;8.644;2022-08-16T05:46:39;4.87;;;4.47;;
40573;SDS011;26283;49.020;8.644;2022-08-16T05:49:06;4.93;;;4.63;;
40573;SDS011;26283;49.020;8.644;2022-08-16T05:51:32;5.37;;;4.97;;
40573;SDS011;26283;49.020;8.644;2022-08-16T05:53:57;4.97;;;4.67;;
40573;SDS011;26283;49.020;8.644;2022-08-16T05:56:23;4.70;;;4.40;;
40573;SDS011;26283;49.020;8.644;2022-08-16T05:58:48;5.30;;;4.87;;
40573;SDS011;26283;49.020;8.644;2022-08-16T06:01:14;5.40;;;5.00;;
40573;SDS011;26283;49.020;8.644;2022-08-16T06:03:39;6.47;;;5.60;;
40573;SDS011;26283;49.020;8.644;2022-08-16T06:06:05;5.60;;;5.10;;
40573;SDS011;26283;49.020;8.644;2022-08-16T06:08:30;5.23;;;4.80;;
40573;SDS011;26283;49.020;8.644;2022-08-16T06:10:56;5.23;;;4.83;;
40573;SDS011;26283;49.020;8.644;2022-08-16T06:13:21;5.37;;;4.97;;
40573;SDS011;26283;49.020;8.644;2022-08-16T06:15:47;5.27;;;4.87;;
40573;SDS011;26283;49.020;8.644;2022-08-16T06:18:15;4.67;;;4.37;;
40573;SDS011;26283;49.020;8.644;2022-08-16T06:20:41;6.77;;;4.83;;
40573;SDS011;26283;49.020;8.644;2022-08-16T06:23:07;5.60;;;5.00;;
40573;SDS011;26283;49.020;8.644;2022-08-16T06:25:33;5.20;;;4.90;;
40573;SDS011;26283;49.020;8.644;2022-08-16T06:27:58;6.27;;;4.90;;
40573;SDS011;26283;49.020;8.644;2022-08-16T06:30:24;5.00;;;4.60;;
40573;SDS011;26283;49.020;8.644;2022-08-16T06:32:50;6.27;;;4.77;;
40573;SDS011;26283;49.020;8.644;2022-08-16T06:35:15;5.20;;;4.80;;
40573;SDS011;26283;49.020;8.644;2022-08-16T06:37:41;5.33;;;4.80;;
40573;SDS011;26283;49.020;8.644;2022-08-16T06:40:07;5.67;;;4.70;;
40573;SDS011;26283;49.020;8.644;2022-08-16T06:42:34;5.37;;;4.87;;
40573;SDS011;26283;49.020;8.644;2022-08-16T06:45:00;5.27;;;4.73;;
40573;SDS011;26283;49.020;8.644;2022-08-16T06:47:25;5.53;;;4.90;;
40573;SDS011;26283;49.020;8.644;2022-08-16T06:49:51;5.33;;;4.87;;
40573;SDS011;26283;49.020;8.644;2022-08-16T06:52:16;7.10;;;5.30;;
40573;SDS011;26283;49.020;8.644;2022-08-16T06:54:42;4.87;;;4.57;;
40573;SDS011;26283;49.020;8.644;2022-08-16T06:57:08;5.27;;;4.83;;
40573;SDS011;26283;49.020;8.644;2022-08-16T06:59:35;5.30;;;4.80;;
40573;SDS011;26283;49.020;8.644;2022-08-16T07:02:01;5.37;;;5.03;;
40573;SDS011;26283;49.020;8.644;2022-08-16T07:04:27;6.27;;;5.30;;
40573;SDS011;26283;49.020;8.644;2022-08-16T07:06:53;5.10;;;4.60;;
40573;SDS011;26283;49.020;8.644;2022-08-16T07:09:18;5.80;;;5.27;;
40573;SDS011;26283;49.020;8.644;2022-08-16T07:11:44;5.40;;;4.90;;
40573;SDS011;26283;49.020;8.644;2022-08-16T07:14:10;5.37;;;4.87;;
40573;SDS011;26283;49.020;8.644;2022-08-16T07:16:36;4.90;;;4.50;;
40573;SDS011;26283;49.020;8.644;2022-08-16T07:19:01;4.97;;;4.57;;
40573;SDS011;26283;49.020;8.644;2022-08-16T07:21:27;5.10;;;4.67;;
40573;SDS011;26283;49.020;8.644;2022-08-16T07:23:52;5.57;;;4.50;;
40573;SDS011;26283;49.020;8.644;2022-08-16T07:26:19;4.67;;;4.30;;
40573;SDS011;26283;49.020;8.644;2022-08-16T07:28:46;4.73;;;4.43;;
40573;SDS011;26283;49.020;8.644;2022-08-16T07:31:12;4.67;;;4.20;;
40573;SDS011;26283;49.020;8.644;2022-08-16T07:33:39;4.60;;;4.30;;
40573;SDS011;26283;49.020;8.644;2022-08-16T07:36:06;4.60;;;4.20;;
40573;SDS011;26283;49.020;8.644;2022-08-16T07:38:32;4.60;;;4.12;;
40573;SDS011;26283;49.020;8.644;2022-08-16T07:40:58;4.27;;;3.87;;
40573;SDS011;26283;49.020;8.644;2022-08-16T07:43:24;6.22;;;3.78;;
40573;SDS011;26283;49.020;8.644;2022-08-16T07:45:50;4.35;;;4.03;;
40573;SDS011;26283;49.020;8.644;2022-08-16T07:48:16;7.78;;;4.50;;
40573;SDS011;26283;49.020;8.644;2022-08-16T07:50:43;4.07;;;3.87;;
40573;SDS011;26283;49.020;8.644;2022-08-16T07:53:09;4.50;;;4.10;;
40573;SDS011;26283;49.020;8.644;2022-08-16T07:55:35;7.65;;;4.12;;
40573;SDS011;26283;49.020;8.644;2022-08-16T07:58:01;4.43;;;4.10;;
40573;SDS011;26283;49.020;8.644;2022-08-16T08:00:28;6.43;;;4.53;;
40573;SDS011;26283;49.020;8.644;2022-08-16T08:02:53;4.82;;;4.43;;
40573;SDS011;26283;49.020;8.644;2022-08-16T08:05:20;5.15;;;4.43;;
40573;SDS011;26283;49.020;8.644;2022-08-16T08:07:47;4.93;;;4.53;;
40573;SDS011;26283;49.020;8.644;2022-08-16T08:10:13;4.55;;;4.15;;
40573;SDS011;26283;49.020;8.644;2022-08-16T08:12:39;4.43;;;4.10;;
40573;SDS011;26283;49.020;8.644;2022-08-16T08:15:05;4.40;;;4.10;;
40573;SDS011;26283;49.020;8.644;2022-08-16T08:17:33;4.43;;;4.03;;
40573;SDS011;26283;49.020;8.644;2022-08-16T08:19:58;4.60;;;4.22;;
40573;SDS011;26283;49.020;8.644;2022-08-16T08:22:23;5.43;;;4.57;;
40573;SDS011;26283;49.020;8.644;2022-08-16T08:24:49;5.35;;;4.72;;
40573;SDS011;26283;49.020;8.644;2022-08-16T08:27:15;4.93;;;4.53;;
40573;SDS011;26283;49.020;8.644;2022-08-16T08:29:41;5.93;;;4.70;;
40573;SDS011;26283;49.020;8.644;2022-08-16T08:32:07;5.05;;;4.65;;
40573;SDS011;26283;49.020;8.644;2022-08-16T08:34:33;5.95;;;4.55;;
40573;SDS011;26283;49.020;8.644;2022-08-16T08:36:59;5.05;;;4.35;;
40573;SDS011;26283;49.020;8.644;2022-08-16T08:39:24;8.23;;;4.43;;
40573;SDS011;26283;49.020;8.644;2022-08-16T08:41:50;5.35;;;4.85;;
40573;SDS011;26283;49.020;8.644;2022-08-16T08:44:16;5.70;;;4.62;;
40573;SDS011;26283;49.020;8.644;2022-08-16T08:46:42;4.97;;;4.50;;
40573;SDS011;26283;49.020;8.644;2022-08-16T08:49:08;5.20;;;4.70;;
40573;SDS011;26283;49.020;8.644;2022-08-16T08:51:33;5.47;;;4.65;;
40573;SDS011;26283;49.020;8.644;2022-08-16T08:54:00;6.07;;;4.95;;
40573;SDS011;26283;49.020;8.644;2022-08-16T08:56:27;5.72;;;4.60;;
40573;SDS011;26283;49.020;8.644;2022-08-16T08:58:57;7.10;;;4.78;;
40573;SDS011;26283;49.020;8.644;2022-08-16T09:01:28;6.80;;;4.95;;
40573;SDS011;26283;49.020;8.644;2022-08-16T09:03:56;6.85;;;4.90;;
40573;SDS011;26283;49.020;8.644;2022-08-16T09:06:22;5.78;;;5.03;;
40573;SDS011;26283;49.020;8.644;2022-08-16T09:08:47;7.22;;;4.40;;
40573;SDS011;26283;49.020;8.644;2022-08-16T09:11:12;8.02;;;5.70;;
40573;SDS011;26283;49.020;8.644;2022-08-16T09:13:38;5.35;;;4.95;;
40573;SDS011;26283;49.020;8.644;2022-08-16T09:16:04;4.97;;;4.18;;
40573;SDS011;26283;49.020;8.644;2022-08-16T09:18:29;5.20;;;4.62;;
40573;SDS011;26283;49.020;8.644;2022-08-16T09:20:56;5.57;;;5.07;;
40573;SDS011;26283;49.020;8.644;2022-08-16T09:23:23;4.45;;;4.12;;
40573;SDS011;26283;49.020;8.644;2022-08-16T09:25:49;5.45;;;4.68;;
40573;SDS011;26283;49.020;8.644;2022-08-16T09:28:15;5.72;;;5.12;;
40573;SDS011;26283;49.020;8.644;2022-08-16T09:30:41;4.53;;;4.12;;
40573;SDS011;26283;49.020;8.644;2022-08-16T09:33:07;6.05;;;4.95;;
40573;SDS011;26283;49.020;8.644;2022-08-16T09:35:34;5.40;;;4.93;;
40573;SDS011;26283;49.020;8.644;2022-08-16T09:38:01;5.55;;;5.10;;
40573;SDS011;26283;49.020;8.644;2022-08-16T09:40:27;4.50;;;4.12;;
40573;SDS011;26283;49.020;8.644;2022-08-16T09:42:52;6.05;;;4.68;;
40573;SDS011;26283;49.020;8.644;2022-08-16T09:45:19;4.82;;;4.20;;
40573;SDS011;26283;49.020;8.644;2022-08-16T09:47:45;4.75;;;4.18;;
40573;SDS011;26283;49.020;8.644;2022-08-16T09:50:12;4.95;;;4.35;;
40573;SDS011;26283;49.020;8.644;2022-08-16T09:52:38;4.47;;;4.15;;
40573;SDS011;26283;49.020;8.644;2022-08-16T09:55:04;5.15;;;4.75;;
40573;SDS011;26283;49.020;8.644;2022-08-16T09:57:31;6.12;;;4.40;;
40573;SDS011;26283;49.020;8.644;2022-08-16T09:59:56;4.85;;;4.40;;
40573;SDS011;26283;49.020;8.644;2022-08-16T10:02:24;5.15;;;4.60;;
40573;SDS011;26283;49.020;8.644;2022-08-16T10:04:50;4.45;;;4.03;;
40573;SDS011;26283;49.020;8.644;2022-08-16T10:07:15;7.07;;;4.72;;
40573;SDS011;26283;49.020;8.644;2022-08-16T10:09:44;4.70;;;4.37;;
40573;SDS011;26283;49.020;8.644;2022-08-16T10:12:10;4.60;;;4.30;;
40573;SDS011;26283;49.020;8.644;2022-08-16T10:14:54;4.97;;;4.45;;
40573;SDS011;26283;49.020;8.644;2022-08-16T10:17:19;4.85;;;4.37;;
40573;SDS011;26283;49.020;8.644;2022-08-16T10:19:45;4.82;;;4.35;;
40573;SDS011;26283;49.020;8.644;2022-08-16T10:22:11;4.47;;;3.95;;
40573;SDS011;26283;49.020;8.644;2022-08-16T10:24:38;8.65;;;4.72;;
40573;SDS011;26283;49.020;8.644;2022-08-16T10:27:04;4.60;;;4.20;;
40573;SDS011;26283;49.020;8.644;2022-08-16T10:29:30;4.53;;;4.20;;
40573;SDS011;26283;49.020;8.644;2022-08-16T10:31:56;6.43;;;4.95;;
40573;SDS011;26283;49.020;8.644;2022-08-16T10:34:22;4.53;;;4.18;;
40573;SDS011;26283;49.020;8.644;2022-08-16T10:36:47;4.53;;;4.22;;
40573;SDS011;26283;49.020;8.644;2022-08-16T10:39:12;5.35;;;4.37;;
40573;SDS011;26283;49.020;8.644;2022-08-16T10:41:38;6.15;;;4.72;;
40573;SDS011;26283;49.020;8.644;2022-08-16T10:44:03;4.80;;;4.32;;
40573;SDS011;26283;49.020;8.644;2022-08-16T10:46:29;5.15;;;4.28;;
40573;SDS011;26283;49.020;8.644;2022-08-16T10:48:55;4.62;;;4.22;;
40573;SDS011;26283;49.020;8.644;2022-08-16T10:51:20;5.43;;;4.07;;
40573;SDS011;26283;49.020;8.644;2022-08-16T10:53:46;4.28;;;3.87;;
40573;SDS011;26283;49.020;8.644;2022-08-16T10:56:11;7.12;;;4.03;;
40573;SDS011;26283;49.020;8.644;2022-08-16T10:58:37;3.70;;;3.50;;
40573;SDS011;26283;49.020;8.644;2022-08-16T11:01:04;3.80;;;3.47;;
40573;SDS011;26283;49.020;8.644;2022-08-16T11:03:32;3.83;;;3.53;;
40573;SDS011;26283;49.020;8.644;2022-08-16T11:05:58;4.37;;;3.80;;
40573;SDS011;26283;49.020;8.644;2022-08-16T11:08:23;4.90;;;4.12;;
40573;SDS011;26283;49.020;8.644;2022-08-16T11:10:49;4.30;;;3.87;;
40573;SDS011;26283;49.020;8.644;2022-08-16T11:13:19;4.80;;;4.43;;
40573;SDS011;26283;49.020;8.644;2022-08-16T11:15:46;4.40;;;4.00;;
40573;SDS011;26283;49.020;8.644;2022-08-16T11:18:12;4.20;;;3.90;;
40573;SDS011;26283;49.020;8.644;2022-08-16T11:20:38;6.40;;;4.55;;
40573;SDS011;26283;49.020;8.644;2022-08-16T11:23:05;5.12;;;4.30;;
40573;SDS011;26283;49.020;8.644;2022-08-16T11:25:31;4.78;;;3.83;;
40573;SDS011;26283;49.020;8.644;2022-08-16T11:27:58;3.50;;;3.30;;
40573;SDS011;26283;49.020;8.644;2022-08-16T11:30:25;3.92;;;3.67;;
40573;SDS011;26283;49.020;8.644;2022-08-16T11:32:51;4.15;;;3.75;;
40573;SDS011;26283;49.020;8.644;2022-08-16T11:35:18;4.28;;;3.65;;
40573;SDS011;26283;49.020;8.644;2022-08-16T11:37:48;3.72;;;3.50;;
40573;SDS011;26283;49.020;8.644;2022-08-16T11:40:15;4.07;;;3.70;;
40573;SDS011;26283;49.020;8.644;2022-08-16T11:42:41;3.62;;;3.35;;
40573;SDS011;26283;49.020;8.644;2022-08-16T11:45:07;4.07;;;3.67;;
40573;SDS011;26283;49.020;8.644;2022-08-16T11:47:33;5.15;;;3.95;;
40573;SDS011;26283;49.020;8.644;2022-08-16T11:49:58;4.00;;;3.72;;
40573;SDS011;26283;49.020;8.644;2022-08-16T11:52:24;4.00;;;3.70;;
40573;SDS011;26283;49.020;8.644;2022-08-16T11:54:50;3.87;;;3.47;;
40573;SDS011;26283;49.020;8.644;2022-08-16T11:57:17;3.95;;;3.65;;
40573;SDS011;26283;49.020;8.644;2022-08-16T11:59:42;5.05;;;3.40;;
40573;SDS011;26283;49.020;8.644;2022-08-16T12:02:08;3.87;;;3.58;;
40573;SDS011;26283;49.020;8.644;2022-08-16T12:04:34;6.62;;;3.75;;
40573;SDS011;26283;49.020;8.644;2022-08-16T12:07:00;3.67;;;3.10;;
40573;SDS011;26283;49.020;8.644;2022-08-16T12:09:32;3.78;;;3.50;;
40573;SDS011;26283;49.020;8.644;2022-08-16T12:11:58;3.47;;;3.28;;
40573;SDS011;26283;49.020;8.644;2022-08-16T12:14:24;3.83;;;3.53;;
40573;SDS011;26283;49.020;8.644;2022-08-16T12:16:51;3.53;;;3.22;;
40573;SDS011;26283;49.020;8.644;2022-08-16T12:19:20;3.78;;;3.47;;
40573;SDS011;26283;49.020;8.644;2022-08-16T12:21:46;4.47;;;3.22;;
40573;SDS011;26283;49.020;8.644;2022-08-16T12:24:12;3.50;;;3.20;;
40573;SDS011;26283;49.020;8.644;2022-08-16T12:26:37;3.25;;;2.90;;
40573;SDS011;26283;49.020;8.644;2022-08-16T12:29:03;3.08;;;2.85;;
40573;SDS011;26283;49.020;8.644;2022-08-16T12:31:29;3.20;;;3.00;;
40573;SDS011;26283;49.020;8.644;2022-08-16T12:33:55;4.00;;;3.50;;
40573;SDS011;26283;49.020;8.644;2022-08-16T12:36:20;3.72;;;3.42;;
40573;SDS011;26283;49.020;8.644;2022-08-16T12:38:46;3.60;;;3.22;;
40573;SDS011;26283;49.020;8.644;2022-08-16T12:41:12;3.45;;;3.22;;
40573;SDS011;26283;49.020;8.644;2022-08-16T12:43:39;3.80;;;3.33;;
40573;SDS011;26283;49.020;8.644;2022-08-16T12:46:08;3.55;;;3.25;;
40573;SDS011;26283;49.020;8.644;2022-08-16T12:48:38;3.50;;;3.20;;
40573;SDS011;26283;49.020;8.644;2022-08-16T12:51:24;3.17;;;2.97;;
40573;SDS011;26283;49.020;8.644;2022-08-16T12:53:53;3.37;;;3.08;;
40573;SDS011;26283;49.020;8.644;2022-08-16T12:56:21;4.30;;;3.15;;
40573;SDS011;26283;49.020;8.644;2022-08-16T12:58:50;3.42;;;3.20;;
40573;SDS011;26283;49.020;8.644;2022-08-16T13:01:20;5.65;;;3.33;;
40573;SDS011;26283;49.020;8.644;2022-08-16T13:03:49;4.85;;;3.20;;
40573;SDS011;26283;49.020;8.644;2022-08-16T13:06:15;4.20;;;3.00;;
40573;SDS011;26283;49.020;8.644;2022-08-16T13:08:41;3.60;;;3.30;;
40573;SDS011;26283;49.020;8.644;2022-08-16T13:11:08;3.17;;;2.90;;
40573;SDS011;26283;49.020;8.644;2022-08-16T13:13:34;3.10;;;2.90;;
40573;SDS011;26283;49.020;8.644;2022-08-16T13:16:00;3.37;;;3.15;;
40573;SDS011;26283;49.020;8.644;2022-08-16T13:18:29;3.42;;;3.12;;
40573;SDS011;26283;49.020;8.644;2022-08-16T13:20:55;2.90;;;2.70;;
40573;SDS011;26283;49.020;8.644;2022-08-16T13:23:21;3.28;;;2.92;;
40573;SDS011;26283;49.020;8.644;2022-08-16T13:25:48;4.75;;;2.90;;
40573;SDS011;26283;49.020;8.644;2022-08-16T13:28:15;2.90;;;2.80;;
40573;SDS011;26283;49.020;8.644;2022-08-16T13:30:45;3.20;;;3.00;;
40573;SDS011;26283;49.020;8.644;2022-08-16T13:33:17;3.67;;;3.35;;
40573;SDS011;26283;49.020;8.644;2022-08-16T13:35:46;3.20;;;2.97;;
40573;SDS011;26283;49.020;8.644;2022-08-16T13:38:13;3.37;;;3.08;;
40573;SDS011;26283;49.020;8.644;2022-08-16T13:40:39;3.45;;;3.15;;
40573;SDS011;26283;49.020;8.644;2022-08-16T13:43:05;3.10;;;2.87;;
40573;SDS011;26283;49.020;8.644;2022-08-16T13:45:31;2.83;;;2.60;;
40573;SDS011;26283;49.020;8.644;2022-08-16T13:47:57;3.10;;;2.90;;
40573;SDS011;26283;49.020;8.644;2022-08-16T13:50:23;3.90;;;2.70;;
40573;SDS011;26283;49.020;8.644;2022-08-16T13:52:51;3.58;;;3.30;;
40573;SDS011;26283;49.020;8.644;2022-08-16T13:55:18;2.92;;;2.72;;
40573;SDS011;26283;49.020;8.644;2022-08-16T13:57:43;3.15;;;2.87;;
40573;SDS011;26283;49.020;8.644;2022-08-16T14:00:09;4.20;;;3.00;;
40573;SDS011;26283;49.020;8.644;2022-08-16T14:02:35;3.90;;;3.58;;
40573;SDS011;26283;49.020;8.644;2022-08-16T14:05:01;3.40;;;3.10;;
40573;SDS011;26283;49.020;8.644;2022-08-16T14:07:28;3.70;;;3.25;;
40573;SDS011;26283;49.020;8.644;2022-08-16T14:09:53;3.17;;;2.72;;
40573;SDS011;26283;49.020;8.644;2022-08-16T14:12:25;4.50;;;2.83;;
40573;SDS011;26283;49.020;8.644;2022-08-16T14:14:53;2.83;;;2.62;;
40573;SDS011;26283;49.020;8.644;2022-08-16T14:17:19;3.45;;;3.15;;
40573;SDS011;26283;49.020;8.644;2022-08-16T14:19:46;3.62;;;2.85;;
40573;SDS011;26283;49.020;8.644;2022-08-16T14:22:20;4.07;;;3.03;;
40573;SDS011;26283;49.020;8.644;2022-08-16T14:24:50;3.85;;;2.80;;
40573;SDS011;26283;49.020;8.644;2022-08-16T14:27:17;3.75;;;2.90;;
40573;SDS011;26283;49.020;8.644;2022-08-16T14:29:45;2.75;;;2.55;;
40573;SDS011;26283;49.020;8.644;2022-08-16T14:32:11;3.72;;;2.80;;
40573;SDS011;26283;49.020;8.644;2022-08-16T14:34:37;3.35;;;2.70;;
40573;SDS011;26283;49.020;8.644;2022-08-16T14:37:02;3.25;;;2.95;;
40573;SDS011;26283;49.020;8.644;2022-08-16T14:39:31;3.92;;;2.90;;
40573;SDS011;26283;49.020;8.644;2022-08-16T14:42:07;3.42;;;3.12;;
40573;SDS011;26283;49.020;8.644;2022-08-16T14:44:35;3.53;;;3.22;;
40573;SDS011;26283;49.020;8.644;2022-08-16T14:47:02;3.30;;;2.92;;
40573;SDS011;26283;49.020;8.644;2022-08-16T14:49:28;3.33;;;3.12;;